< < Back
Terminal Aerodrome Forecast


Current Version              Previous Versions:   1  2  3  4  5  6  7  8  9  

Terminal Aerodrome Forecast

845
FTUS42 KCAE 041502 AAC
TAFCAE
TAF AMD
KCAE 041502Z 0415/0512 24009KT P6SM SCT045 OVC100
     FM041600 24010KT 6SM -SHRA BKN040
     FM041900 24014G23KT P6SM VCTS BKN040CB
     FM050000 24007KT P6SM SCT040 BKN100=

Latest METAR

958
SAUS80 KWBC 041700 RRA
MTRCAE
METAR KCAE 041656Z 26013KT 10SM OVC130 28/19 A3007 RMK AO2 SLP180
T02830189 $


USA.gov is the U.S. government's official web portal to all federal, state and local government web resources and services.